Time;durP1;ratioP1;P1;durP2;ratioP2;P2;SDS_P1;SDS_P2;PMS_P1;PMS_P2;Temp;Humidity;BMP_temperature;BMP_pressure;BME280_temperature;BME280_humidity;BME280_pressure;Samples;Min_cycle;Max_cycle;Signal;HPM_P1;HPM_P2
2021/05/07 00:01:12;;;;;;;5.20;2.30;;;;;;;9.77;44.90;98124.59;125652;1104;103135;-77
2021/05/07 00:03:42;;;;;;;7.00;2.37;;;;;;;9.78;44.89;98144.05;125522;1104;103132;-77
2021/05/07 00:06:12;;;;;;;8.60;2.67;;;;;;;9.80;44.74;98142.08;125605;1104;103027;-76
2021/05/07 00:08:43;;;;;;;6.50;2.43;;;;;;;9.81;44.79;98146.41;125611;1104;103014;-76
2021/05/07 00:11:18;;;;;;;7.17;2.50;;;;;;;9.79;45.00;98146.55;125650;1104;102988;-75
2021/05/07 00:13:50;;;;;;;10.83;3.63;;;;;;;9.80;44.91;98152.70;125652;1104;103415;-76
2021/05/07 00:16:17;;;;;;;7.70;2.23;;;;;;;9.82;45.27;98151.61;125646;1100;103107;-76
2021/05/07 00:18:47;;;;;;;5.00;2.33;;;;;;;9.84;45.10;98148.81;125612;1105;103123;-77
2021/05/07 00:21:15;;;;;;;5.67;2.67;;;;;;;9.90;44.91;98150.13;125520;1104;103045;-77
2021/05/07 00:23:45;;;;;;;6.70;1.97;;;;;;;9.94;45.42;98159.52;125548;1104;103089;-77
2021/05/07 00:26:12;;;;;;;3.30;1.70;;;;;;;9.98;45.35;98158.30;125495;1104;103183;-78
2021/05/07 00:28:43;;;;;;;6.07;2.03;;;;;;;10.05;45.38;98161.26;125479;1104;103190;-77
2021/05/07 00:31:10;;;;;;;5.67;1.47;;;;;;;10.11;45.46;98150.11;125506;1104;103192;-78
2021/05/07 00:33:38;;;;;;;6.00;2.10;;;;;;;10.15;45.37;98142.70;126203;1104;103141;-78
2021/05/07 00:36:05;;;;;;;5.67;2.10;;;;;;;10.20;45.54;98145.81;125553;1104;103016;-77
2021/05/07 00:38:36;;;;;;;5.03;1.97;;;;;;;10.21;45.60;98150.98;125530;1104;103081;-78
2021/05/07 00:41:03;;;;;;;3.97;1.77;;;;;;;10.24;45.72;98144.58;125507;1104;102982;-78
2021/05/07 00:43:30;;;;;;;3.93;1.70;;;;;;;10.25;45.46;98139.12;125567;1098;103086;-76
2021/05/07 00:45:58;;;;;;;4.40;1.70;;;;;;;10.26;45.70;98139.98;125524;1098;102998;-77
2021/05/07 00:48:28;;;;;;;6.30;1.90;;;;;;;10.25;45.88;98139.12;125588;1104;103091;-76
2021/05/07 00:50:58;;;;;;;5.10;2.07;;;;;;;10.24;45.93;98148.06;125558;1100;103280;-75
2021/05/07 00:53:29;;;;;;;2.87;2.00;;;;;;;10.24;45.83;98133.95;125556;1100;103062;-76
2021/05/07 00:55:56;;;;;;;5.93;2.10;;;;;;;10.24;46.21;98139.27;125514;1104;103086;-77
2021/05/07 00:58:27;;;;;;;4.27;1.97;;;;;;;10.24;46.18;98141.92;125517;1104;103086;-76
2021/05/07 01:00:54;;;;;;;6.37;2.20;;;;;;;10.21;46.00;98129.72;125510;1100;102985;-75
2021/05/07 01:03:23;;;;;;;3.90;2.30;;;;;;;10.19;46.06;98139.64;125595;1104;102988;-74
2021/05/07 01:05:50;;;;;;;3.67;1.90;;;;;;;10.17;46.32;98125.67;125407;1104;102987;-75
2021/05/07 01:08:21;;;;;;;5.97;2.77;;;;;;;10.15;46.17;98124.11;125550;1104;102991;-75
2021/05/07 01:10:53;;;;;;;8.03;2.70;;;;;;;10.12;46.36;98115.42;125539;1104;103052;-76
2021/05/07 01:13:20;;;;;;;5.33;2.70;;;;;;;10.10;46.59;98112.05;125611;1104;103012;-76
2021/05/07 01:15:48;;;;;;;5.97;2.50;;;;;;;10.08;46.69;98116.66;125599;1104;103549;-75
2021/05/07 01:18:15;;;;;;;9.00;2.43;;;;;;;10.08;46.71;98119.31;125484;1098;103123;-76
2021/05/07 01:20:43;;;;;;;5.20;2.27;;;;;;;10.04;46.75;98107.27;125510;1104;103496;-76
2021/05/07 01:23:13;;;;;;;5.10;2.50;;;;;;;9.98;46.97;98105.98;125491;1100;103062;-76
2021/05/07 01:25:45;;;;;;;6.83;2.67;;;;;;;9.93;46.78;98104.71;125582;1104;103133;-76
2021/05/07 01:28:14;;;;;;;4.07;2.50;;;;;;;9.86;46.76;98112.34;125644;1105;103088;-75
2021/05/07 01:30:48;;;;;;;5.80;2.03;;;;;;;9.78;46.80;98097.06;127203;1104;100942;-76
2021/05/07 01:33:20;;;;;;;5.57;2.57;;;;;;;9.71;47.19;98089.77;125632;1104;103147;-75
2021/05/07 01:35:49;;;;;;;7.43;2.57;;;;;;;9.63;47.23;98079.77;126294;1104;103000;-75
2021/05/07 01:38:18;;;;;;;6.30;2.37;;;;;;;9.59;47.13;98086.31;125446;1104;103027;-76
2021/05/07 01:40:49;;;;;;;4.80;2.40;;;;;;;9.51;47.01;98077.20;125433;1099;103096;-76
2021/05/07 01:43:18;;;;;;;6.67;2.70;;;;;;;9.46;47.31;98068.78;125414;1099;103005;-75
2021/05/07 01:45:48;;;;;;;6.23;2.07;;;;;;;9.45;47.31;98060.94;127662;1104;100719;-75
2021/05/07 01:48:17;;;;;;;3.73;2.27;;;;;;;9.41;47.43;98064.81;126424;1104;101857;-75
2021/05/07 01:50:48;;;;;;;10.17;2.77;;;;;;;9.37;47.45;98053.63;125484;1104;102987;-76
2021/05/07 01:53:19;;;;;;;10.83;2.60;;;;;;;9.35;47.72;98056.42;125447;1104;103045;-76
2021/05/07 01:55:50;;;;;;;5.40;2.43;;;;;;;9.34;47.73;98048.57;125502;1098;103019;-75
2021/05/07 01:58:21;;;;;;;4.87;2.50;;;;;;;9.33;47.96;98041.58;125478;1100;103091;-75
2021/05/07 02:00:48;;;;;;;5.27;2.33;;;;;;;9.30;47.70;98040.04;125555;1104;103010;-77
2021/05/07 02:03:18;;;;;;;6.40;2.37;;;;;;;9.23;48.20;98030.91;125602;1104;103087;-74
2021/05/07 02:05:45;;;;;;;8.53;2.63;;;;;;;9.17;47.86;98024.28;125583;1100;102994;-75
2021/05/07 02:08:13;;;;;;;5.53;2.40;;;;;;;9.13;48.37;98016.72;125669;1104;103144;-75
2021/05/07 02:10:43;;;;;;;4.03;2.20;;;;;;;9.08;48.22;98017.12;125625;1104;103080;-76
2021/05/07 02:13:14;;;;;;;7.63;3.03;;;;;;;9.02;47.97;98013.14;125566;1104;102997;-77
2021/05/07 02:15:41;;;;;;;7.07;2.80;;;;;;;9.00;48.22;98007.13;125652;1104;102994;-76
2021/05/07 02:18:09;;;;;;;7.27;2.93;;;;;;;8.97;48.60;98006.55;125555;1100;102985;-76
2021/05/07 02:20:40;;;;;;;6.90;2.70;;;;;;;8.95;48.35;98004.05;125508;1104;103071;-76
2021/05/07 02:23:08;;;;;;;4.33;2.40;;;;;;;8.93;48.73;98001.50;125509;1099;103022;-76
2021/05/07 02:25:37;;;;;;;4.93;2.27;;;;;;;8.87;48.37;97994.05;125569;1104;103069;-77
2021/05/07 02:28:04;;;;;;;5.97;2.50;;;;;;;8.85;48.56;97984.55;125557;1100;103022;-75
2021/05/07 02:30:34;;;;;;;7.27;2.60;;;;;;;8.82;48.95;97976.84;125565;1105;103128;-76
2021/05/07 02:33:02;;;;;;;9.07;2.70;;;;;;;8.77;48.87;97977.21;125555;1100;103029;-76
2021/05/07 02:35:29;;;;;;;5.63;2.43;;;;;;;8.74;48.78;97977.49;125640;1098;103020;-76
2021/05/07 02:37:56;;;;;;;4.40;2.37;;;;;;;8.71;48.62;97975.09;125530;1099;103008;-76
2021/05/07 02:40:24;;;;;;;6.77;2.53;;;;;;;8.72;49.31;97974.13;125702;1104;102994;-75
2021/05/07 02:42:54;;;;;;;7.03;2.53;;;;;;;8.71;48.95;97964.49;125701;1104;103200;-74
2021/05/07 02:45:21;;;;;;;8.03;2.60;;;;;;;8.69;49.02;97958.47;125603;1104;102997;-76
2021/05/07 02:47:49;;;;;;;5.70;2.33;;;;;;;8.66;49.12;97956.08;125617;1100;102997;-76
2021/05/07 02:50:16;;;;;;;5.07;2.17;;;;;;;8.64;49.24;97949.09;125496;1104;103018;-76
2021/05/07 02:52:45;;;;;;;4.67;2.43;;;;;;;8.64;49.34;97948.23;125512;1100;103097;-76
2021/05/07 02:55:13;;;;;;;5.57;2.30;;;;;;;8.63;49.35;97941.25;125510;1104;103113;-76
2021/05/07 02:57:44;;;;;;;7.55;2.60;;;;;;;8.64;49.38;97941.13;125575;1099;103470;-77
2021/05/07 03:00:12;;;;;;;5.63;2.40;;;;;;;8.64;49.44;97942.92;125585;1104;103094;-75
2021/05/07 03:02:42;;;;;;;5.63;2.60;;;;;;;8.63;49.89;97941.25;125552;1104;102998;-76
2021/05/07 03:05:11;;;;;;;7.57;2.23;;;;;;;8.63;49.92;97933.30;125546;1099;103183;-76
2021/05/07 03:07:41;;;;;;;5.20;2.05;;;;;;;8.62;49.83;97928.95;125545;1104;102997;-76
2021/05/07 03:10:12;;;;;;;4.47;2.50;;;;;;;8.61;49.88;97932.58;125490;1104;103087;-75
2021/05/07 03:12:39;;;;;;;5.83;2.20;;;;;;;8.61;49.79;97929.92;125541;1104;103086;-76
2021/05/07 03:15:10;;;;;;;7.10;1.93;;;;;;;8.58;49.87;97920.44;125519;1099;103113;-76
2021/05/07 03:17:38;;;;;;;3.70;2.07;;;;;;;8.58;50.12;97923.08;125585;1100;103001;-76
2021/05/07 03:20:12;;;;;;;8.65;2.40;;;;;;;8.58;49.95;97919.58;125538;1104;103195;-77
2021/05/07 03:22:40;;;;;;;9.33;2.70;;;;;;;8.61;50.28;97924.63;125509;1104;103014;-77
2021/05/07 03:25:08;;;;;;;3.63;2.10;;;;;;;8.62;50.60;97921.86;125532;1104;103119;-77
2021/05/07 03:27:38;;;;;;;5.77;2.10;;;;;;;8.64;50.29;97917.28;125495;1104;103126;-76
2021/05/07 03:30:11;;;;;;;6.43;2.40;;;;;;;8.70;50.84;97923.87;125552;1104;102993;-75
2021/05/07 03:32:41;;;;;;;4.87;2.33;;;;;;;8.75;50.84;97913.72;125555;1104;102995;-73
2021/05/07 03:35:11;;;;;;;4.00;1.83;;;;;;;8.79;50.70;97920.45;125546;1104;103003;-75
2021/05/07 03:37:39;;;;;;;3.37;1.83;;;;;;;8.81;50.42;97909.70;125550;1104;102997;-73
2021/05/07 03:40:09;;;;;;;6.87;2.70;;;;;;;8.84;51.10;97909.45;125576;1104;102997;-74
2021/05/07 03:42:36;;;;;;;4.00;2.20;;;;;;;8.86;50.59;97906.69;125571;1104;103030;-76
2021/05/07 03:45:07;;;;;;;4.77;1.97;;;;;;;8.88;50.87;97896.79;125557;1104;103117;-77
2021/05/07 03:47:35;;;;;;;3.87;2.10;;;;;;;8.91;50.95;97886.75;125510;1100;103022;-75
2021/05/07 03:50:10;;;;;;;9.05;2.10;;;;;;;8.95;50.71;97895.30;125566;1100;103582;-74
2021/05/07 03:52:41;;;;;;;7.07;2.23;;;;;;;8.96;51.07;97896.13;125567;1104;103218;-75
2021/05/07 03:55:13;;;;;;;3.70;2.27;;;;;;;9.00;51.06;97892.25;125658;1105;103110;-74
2021/05/07 03:57:43;;;;;;;6.10;2.23;;;;;;;9.02;51.16;97893.78;125649;1104;103097;-74
2021/05/07 04:00:13;;;;;;;4.63;2.00;;;;;;;9.05;50.91;97893.52;125608;1104;103144;-73
2021/05/07 04:02:44;;;;;;;6.03;2.13;;;;;;;9.06;51.23;97897.03;125565;1104;102985;-73
2021/05/07 04:05:12;;;;;;;5.43;2.20;;;;;;;9.11;51.27;97893.98;125489;1104;103024;-73
2021/05/07 04:07:41;;;;;;;4.73;2.20;;;;;;;9.15;51.07;97900.70;125528;1104;103123;-74
2021/05/07 04:10:17;;;;;;;7.47;2.27;;;;;;;9.17;50.96;97904.89;125578;1104;103614;-74
2021/05/07 04:15:19;;;;;;;6.20;2.00;;;;;;;9.21;51.50;97911.63;125576;1104;102995;-75
2021/05/07 04:17:46;;;;;;;7.20;2.40;;;;;;;9.23;51.26;97917.64;125532;1104;103158;-76
2021/05/07 04:20:16;;;;;;;5.73;2.27;;;;;;;9.27;51.61;97927.98;125529;1104;103021;-73
2021/05/07 04:22:46;;;;;;;7.33;2.30;;;;;;;9.27;51.22;97925.34;125521;1099;103227;-72
2021/05/07 04:25:15;;;;;;;5.80;2.43;;;;;;;9.26;51.31;97928.96;125486;1100;103062;-74
2021/05/07 04:27:43;;;;;;;6.17;1.93;;;;;;;9.24;51.63;97926.45;125496;1104;103075;-73
2021/05/07 04:30:12;;;;;;;5.17;2.30;;;;;;;9.24;51.59;97927.28;125531;1099;103048;-71
2021/05/07 04:32:40;;;;;;;6.90;2.13;;;;;;;9.25;51.37;97914.88;125553;1105;103079;-72
2021/05/07 04:35:08;;;;;;;6.43;2.20;;;;;;;9.24;51.58;97899.92;125571;1100;103144;-71
2021/05/07 04:37:38;;;;;;;6.70;2.35;;;;;;;9.23;51.42;97892.94;125519;1104;103107;-73
2021/05/07 04:40:06;;;;;;;5.00;2.20;;;;;;;9.22;51.40;97884.12;125493;1104;103082;-71
2021/05/07 04:42:33;;;;;;;7.67;2.57;;;;;;;9.23;51.42;97887.63;125530;1104;103203;-72
2021/05/07 04:45:00;;;;;;;5.73;2.77;;;;;;;9.26;51.71;97895.33;125543;1104;103134;-74
2021/05/07 04:47:27;;;;;;;6.03;2.23;;;;;;;9.28;51.67;97877.46;125585;1098;103016;-74
2021/05/07 04:49:55;;;;;;;4.63;2.13;;;;;;;9.31;51.72;97881.64;125522;1104;103083;-73
2021/05/07 04:52:25;;;;;;;5.77;2.30;;;;;;;9.34;51.44;97871.63;125590;1104;103087;-76
2021/05/07 04:54:55;;;;;;;8.60;2.80;;;;;;;9.38;51.94;97883.63;125515;1100;103090;-77
2021/05/07 04:57:23;;;;;;;7.77;2.93;;;;;;;9.41;51.75;97890.50;125564;1100;103012;-76
2021/05/07 04:59:50;;;;;;;8.23;2.60;;;;;;;9.44;51.60;97879.62;125543;1104;103166;-77
2021/05/07 05:02:17;;;;;;;4.50;2.05;;;;;;;9.48;51.84;97882.83;125499;1104;103024;-79
2021/05/07 05:04:51;;;;;;;6.47;2.27;;;;;;;9.50;51.89;97879.09;125548;1099;103123;-78
2021/05/07 05:07:18;;;;;;;6.17;2.30;;;;;;;9.53;51.66;97883.27;125585;1104;102988;-75
2021/05/07 05:09:46;;;;;;;4.30;2.43;;;;;;;9.55;51.80;97880.50;125538;1105;102984;-73
2021/05/07 05:12:13;;;;;;;8.73;2.73;;;;;;;9.59;51.63;97881.88;125577;1104;103123;-75
2021/05/07 05:14:43;;;;;;;7.43;2.57;;;;;;;9.63;51.78;97872.68;125564;1104;103459;-72
2021/05/07 05:17:14;;;;;;;6.23;2.80;;;;;;;9.66;52.00;97881.23;125592;1104;103011;-76
2021/05/07 05:19:42;;;;;;;7.67;2.80;;;;;;;9.70;51.73;97884.45;126171;1099;103225;-77
2021/05/07 05:22:09;;;;;;;6.37;2.70;;;;;;;9.73;52.01;97881.52;125512;1099;103041;-76
2021/05/07 05:24:36;;;;;;;8.93;3.03;;;;;;;9.75;52.08;97884.88;125439;1104;103255;-77
2021/05/07 05:27:07;;;;;;;6.73;2.73;;;;;;;9.81;52.06;97879.03;125550;1104;103081;-75
2021/05/07 05:29:34;;;;;;;6.90;2.80;;;;;;;9.81;51.96;97876.38;125561;1104;103438;-76
2021/05/07 05:32:07;;;;;;;8.63;2.60;;;;;;;9.87;51.84;97882.13;125557;1104;103011;-77
2021/05/07 05:34:35;;;;;;;7.50;2.60;;;;;;;9.89;51.97;97891.63;125552;1104;103090;-75
2021/05/07 05:37:05;;;;;;;6.35;2.50;;;;;;;9.92;51.94;97883.38;125551;1100;103798;-76
2021/05/07 05:39:35;;;;;;;5.25;2.10;;;;;;;9.98;52.31;97885.50;125495;1104;103011;-75
2021/05/07 05:42:23;;;;;;;10.53;2.43;;;;;;;10.02;51.95;97882.56;125529;1104;103008;-74
2021/05/07 05:44:53;;;;;;;4.53;2.13;;;;;;;10.08;52.04;97884.68;125567;1104;103053;-73
2021/05/07 05:47:20;;;;;;;7.20;2.60;;;;;;;10.13;52.11;97890.42;126076;1104;103642;-76
2021/05/07 05:49:50;;;;;;;7.83;2.57;;;;;;;10.17;52.20;97889.17;125524;1104;103023;-77
2021/05/07 05:52:18;;;;;;;7.80;2.90;;;;;;;10.21;52.28;97884.41;125519;1100;103011;-75
2021/05/07 05:54:46;;;;;;;7.13;2.70;;;;;;;10.22;52.25;97894.89;125535;1104;103004;-73
2021/05/07 05:57:13;;;;;;;8.60;2.40;;;;;;;10.19;52.13;97897.81;125562;1104;102990;-72
2021/05/07 05:59:41;;;;;;;7.40;2.60;;;;;;;10.17;51.85;97888.31;125680;1100;103423;-71
2021/05/07 06:02:08;;;;;;;9.57;2.80;;;;;;;10.15;52.04;97888.47;125531;1104;103108;-72
2021/05/07 06:04:37;;;;;;;9.10;3.10;;;;;;;10.16;52.05;97891.95;125491;1100;102947;-72
2021/05/07 06:07:06;;;;;;;6.37;2.53;;;;;;;10.18;52.25;97896.17;125507;1104;103212;-78
2021/05/07 06:09:34;;;;;;;9.20;3.33;;;;;;;10.19;52.33;97895.16;125494;1104;103126;-76
2021/05/07 06:12:07;;;;;;;5.77;2.10;;;;;;;10.22;52.36;97889.57;125506;1104;103023;-73
2021/05/07 06:14:37;;;;;;;8.13;2.40;;;;;;;10.24;52.13;97884.13;125528;1104;103488;-73
2021/05/07 06:17:09;;;;;;;4.13;2.50;;;;;;;10.26;52.23;97896.29;125529;1099;103080;-70
2021/05/07 06:19:40;;;;;;;9.90;3.10;;;;;;;10.29;52.35;97892.53;125582;1104;103019;-70
2021/05/07 06:22:07;;;;;;;7.63;2.37;;;;;;;10.33;52.27;97896.59;125572;1100;102990;-73
2021/05/07 06:24:34;;;;;;;7.27;3.07;;;;;;;10.38;52.25;97885.53;125611;1104;103011;-72
2021/05/07 06:27:02;;;;;;;4.60;2.40;;;;;;;10.43;52.28;97891.30;125582;1104;103020;-73
2021/05/07 06:29:34;;;;;;;5.80;2.60;;;;;;;10.50;52.53;97873.82;125629;1099;102998;-71
2021/05/07 06:32:02;;;;;;;8.73;2.70;;;;;;;10.56;52.24;97880.38;125516;1104;103067;-71
2021/05/07 06:34:33;;;;;;;6.43;2.77;;;;;;;10.63;52.31;97878.84;125511;1100;103216;-71
2021/05/07 06:37:03;;;;;;;10.10;3.50;;;;;;;10.67;52.48;97868.75;125539;1104;103158;-72
2021/05/07 06:39:37;;;;;;;11.60;3.00;;;;;;;10.69;52.36;97880.95;125514;1104;103459;-73
2021/05/07 06:42:08;;;;;;;8.90;3.00;;;;;;;10.82;52.41;97885.11;125534;1100;103016;-72
2021/05/07 06:44:35;;;;;;;9.65;3.15;;;;;;;11.00;52.24;97895.89;125517;1104;102990;-72
2021/05/07 06:47:02;;;;;;;7.40;2.60;;;;;;;11.11;52.39;97892.21;125570;1104;102992;-71
2021/05/07 06:49:30;;;;;;;8.73;3.10;;;;;;;11.22;52.45;97888.53;125538;1100;103022;-72
2021/05/07 06:51:57;;;;;;;9.43;2.93;;;;;;;11.28;52.26;97879.97;125549;1104;103086;-72
2021/05/07 06:54:28;;;;;;;7.20;3.27;;;;;;;11.39;52.39;97876.28;125538;1104;103087;-72
2021/05/07 06:56:57;;;;;;;8.57;3.20;;;;;;;11.48;52.48;97872.75;125518;1104;103055;-71
2021/05/07 06:59:27;;;;;;;9.00;3.33;;;;;;;11.55;52.60;97897.81;125523;1104;103451;-76
2021/05/07 07:02:01;;;;;;;8.10;2.97;;;;;;;11.62;52.48;97912.19;125557;1104;103152;-76
2021/05/07 07:04:29;;;;;;;6.67;2.67;;;;;;;11.71;52.38;97922.95;125575;1104;103083;-75
2021/05/07 07:06:57;;;;;;;12.40;3.20;;;;;;;11.71;52.36;97914.97;125598;1104;103235;-74
2021/05/07 07:09:25;;;;;;;8.33;2.83;;;;;;;11.69;52.61;97907.13;125519;1104;102997;-74
2021/05/07 07:11:54;;;;;;;4.43;2.37;;;;;;;11.75;52.43;97911.02;125531;1104;103078;-73
2021/05/07 07:14:21;;;;;;;7.00;2.50;;;;;;;11.81;52.44;97912.27;125528;1100;103492;-75
2021/05/07 07:16:49;;;;;;;8.77;2.77;;;;;;;11.81;52.46;97913.09;125550;1104;103147;-75
2021/05/07 07:19:19;;;;;;;8.40;2.77;;;;;;;11.82;52.47;97913.95;125524;1104;103084;-73
2021/05/07 07:22:06;;;;;;;6.93;2.50;;;;;;;11.82;52.53;97920.11;125567;1104;103109;-73
2021/05/07 07:24:36;;;;;;;8.33;2.90;;;;;;;11.83;52.20;97911.13;125537;1100;103008;-78
2021/05/07 07:27:04;;;;;;;8.13;3.03;;;;;;;11.86;52.47;97915.30;125506;1100;103521;-78
2021/05/07 07:29:34;;;;;;;6.23;2.60;;;;;;;11.89;52.06;97913.20;125534;1104;103115;-75
2021/05/07 07:32:01;;;;;;;7.23;2.60;;;;;;;11.88;52.35;97898.20;125503;1104;103069;-75
2021/05/07 07:34:29;;;;;;;6.65;2.70;;;;;;;11.85;52.28;97911.82;125578;1100;103071;-72
2021/05/07 07:36:56;;;;;;;8.67;3.40;;;;;;;11.83;52.27;97900.47;125581;1104;102990;-73
2021/05/07 07:39:26;;;;;;;8.23;2.60;;;;;;;11.85;52.41;97898.50;125484;1104;103002;-74
2021/05/07 07:41:53;;;;;;;7.93;2.80;;;;;;;11.86;52.42;97899.32;125599;1100;103083;-75
2021/05/07 07:44:21;;;;;;;6.40;2.67;;;;;;;11.88;52.31;97895.54;125518;1104;103175;-77
2021/05/07 07:46:49;;;;;;;13.87;2.90;;;;;;;11.96;52.23;97901.95;125560;1098;103106;-75
2021/05/07 07:49:17;;;;;;;6.30;2.50;;;;;;;12.09;52.23;97904.28;125505;1104;103087;-75
2021/05/07 07:51:45;;;;;;;5.67;2.90;;;;;;;12.49;52.06;97890.51;125557;1100;103020;-76
2021/05/07 07:54:12;;;;;;;6.90;3.00;;;;;;;13.35;51.93;97887.30;125518;1104;102990;-77
2021/05/07 07:56:42;;;;;;;8.23;3.00;;;;;;;13.30;52.24;97885.09;125570;1100;103052;-75
2021/05/07 07:59:09;;;;;;;5.43;2.77;;;;;;;13.99;51.50;97884.25;125628;1104;103019;-73
2021/05/07 08:01:36;;;;;;;8.57;2.97;;;;;;;14.26;51.93;97899.19;125493;1099;103025;-74
2021/05/07 08:04:06;;;;;;;7.57;2.50;;;;;;;14.08;52.12;97901.14;125518;1098;102994;-73
2021/05/07 08:06:33;;;;;;;6.95;2.90;;;;;;;14.22;52.37;97903.20;125515;1104;101911;-74
2021/05/07 08:09:07;;;;;;;10.73;3.17;;;;;;;14.11;51.90;97896.32;125529;1104;102993;-76
2021/05/07 08:11:34;;;;;;;9.13;3.63;;;;;;;13.89;52.13;97897.76;125533;1098;103158;-76
2021/05/07 08:14:02;;;;;;;6.27;2.30;;;;;;;13.95;52.02;97888.24;125500;1104;103495;-77
2021/05/07 08:16:32;;;;;;;8.37;3.10;;;;;;;14.07;51.95;97886.95;125527;1104;103123;-75
2021/05/07 08:18:59;;;;;;;7.70;3.00;;;;;;;14.06;51.98;97887.13;125515;1098;103100;-77
2021/05/07 08:21:29;;;;;;;7.60;2.73;;;;;;;14.50;51.63;97886.02;125542;1097;103093;-76
2021/05/07 08:23:57;;;;;;;8.53;2.90;;;;;;;15.00;51.47;97889.55;125543;1104;102990;-74
2021/05/07 08:26:24;;;;;;;10.17;2.77;;;;;;;15.34;51.56;97883.13;125575;1104;103014;-75
2021/05/07 08:28:51;;;;;;;8.55;2.40;;;;;;;15.60;51.67;97887.42;125526;1104;102987;-74
2021/05/07 08:31:19;;;;;;;7.33;2.30;;;;;;;15.77;51.50;97882.83;125512;1104;102991;-74
2021/05/07 08:33:46;;;;;;;7.93;2.65;;;;;;;15.76;51.47;97886.52;125520;1104;103454;-71
2021/05/07 08:36:13;;;;;;;7.63;3.60;;;;;;;15.96;51.24;97873.55;125532;1104;103014;-71
2021/05/07 08:38:41;;;;;;;6.40;2.90;;;;;;;16.54;51.07;97875.86;125511;1100;103048;-72
2021/05/07 08:41:09;;;;;;;5.77;2.87;;;;;;;16.96;50.82;97877.22;125524;1104;103017;-72
2021/05/07 08:43:38;;;;;;;6.47;2.57;;;;;;;17.57;50.37;97886.17;125517;1100;103084;-74
2021/05/07 08:46:07;;;;;;;7.77;2.70;;;;;;;18.11;50.45;97868.05;125526;1104;103081;-72
2021/05/07 08:48:38;;;;;;;7.27;2.37;;;;;;;18.48;50.50;97876.92;125535;1104;102991;-74
2021/05/07 08:51:06;;;;;;;6.00;2.63;;;;;;;19.14;50.01;97870.49;125580;1104;103036;-74
2021/05/07 08:53:33;;;;;;;6.00;2.67;;;;;;;19.42;49.48;97883.11;125544;1104;102990;-77
2021/05/07 08:56:05;;;;;;;6.43;2.60;;;;;;;19.62;49.78;97883.23;125520;1104;103014;-75
2021/05/07 08:58:32;;;;;;;7.90;2.40;;;;;;;19.81;49.83;97888.09;125443;1104;103131;-76
2021/05/07 09:01:03;;;;;;;6.33;2.50;;;;;;;19.52;49.37;97884.63;125492;1104;102997;-74
2021/05/07 09:03:48;;;;;;;6.35;3.30;;;;;;;19.18;49.28;97889.78;125549;1104;103146;-71
2021/05/07 09:06:21;;;;;;;8.30;3.00;;;;;;;19.03;48.85;97892.58;125533;1099;103082;-75
2021/05/07 09:08:51;;;;;;;8.43;2.70;;;;;;;18.89;48.52;97886.22;125536;1104;103152;-74
2021/05/07 09:11:24;;;;;;;3.87;2.20;;;;;;;18.99;49.00;97888.61;125512;1099;103122;-72
2021/05/07 09:14:02;;;;;;;7.83;2.80;;;;;;;18.80;48.54;97901.66;125532;1100;103059;-72
2021/05/07 09:16:29;;;;;;;6.07;2.90;;;;;;;18.22;48.36;97902.55;125541;1104;103048;-74
2021/05/07 09:18:56;;;;;;;9.67;2.97;;;;;;;17.86;48.32;97900.64;125512;1099;103086;-74
2021/05/07 09:21:24;;;;;;;4.63;2.50;;;;;;;17.45;47.61;97912.69;125520;1104;103115;-73
2021/05/07 09:23:51;;;;;;;7.63;2.97;;;;;;;17.02;47.06;97913.28;125507;1104;103126;-74
2021/05/07 09:26:19;;;;;;;8.83;2.90;;;;;;;16.72;47.31;97915.81;125523;1098;103019;-74
2021/05/07 09:29:03;;;;;;;7.00;3.00;;;;;;;16.51;47.16;97909.27;125596;1099;103155;-72
2021/05/07 09:31:43;;;;;;;5.77;2.50;;;;;;;16.27;47.26;97907.58;125494;1104;103019;-72
2021/05/07 09:34:11;;;;;;;7.00;2.90;;;;;;;16.20;47.31;97918.19;125509;1104;102991;-72
2021/05/07 09:36:42;;;;;;;6.97;2.60;;;;;;;16.16;47.11;97903.45;125510;1104;103030;-73
2021/05/07 09:39:18;;;;;;;6.37;3.20;;;;;;;16.07;46.99;97907.19;125517;1104;103219;-75
2021/05/07 09:41:53;;;;;;;7.33;2.73;;;;;;;15.93;47.12;97917.63;125533;1104;103011;-74
2021/05/07 09:44:25;;;;;;;;;;;;;;;15.83;46.97;97905.42;125567;1104;103139;-74
2021/05/07 09:46:56;;;;;;;9.63;2.80;;;;;;;15.69;47.08;97898.94;125514;1104;102987;-75
2021/05/07 09:49:27;;;;;;;4.63;2.53;;;;;;;15.66;46.70;97894.78;125475;1104;103149;-74
2021/05/07 09:51:58;;;;;;;5.00;2.57;;;;;;;15.51;46.91;97885.77;125512;1104;103143;-74
2021/05/07 09:54:29;;;;;;;5.90;2.43;;;;;;;15.42;46.96;97885.79;125506;1104;103062;-72
2021/05/07 09:57:01;;;;;;;7.13;2.97;;;;;;;15.39;46.97;97880.77;125522;1104;103112;-71
2021/05/07 09:59:31;;;;;;;11.60;2.93;;;;;;;15.35;47.01;97884.80;125544;1104;103065;-72
2021/05/07 10:01:59;;;;;;;6.43;2.67;;;;;;;15.22;46.35;97904.09;125429;1104;103282;-78
2021/05/07 10:04:32;;;;;;;6.20;2.40;;;;;;;15.05;46.77;97897.09;125513;1104;104670;-83
2021/05/07 10:06:59;;;;;;;6.03;2.60;;;;;;;14.94;46.69;97895.58;125558;1104;103059;-73
2021/05/07 10:09:28;;;;;;;7.37;2.70;;;;;;;14.85;46.73;97900.96;125558;1104;103100;-72
2021/05/07 10:11:58;;;;;;;7.55;2.90;;;;;;;14.81;46.61;97894.27;125582;1104;103086;-71
2021/05/07 10:14:30;;;;;;;5.47;2.43;;;;;;;14.85;46.74;97906.31;125497;1104;103076;-74
2021/05/07 10:17:10;;;;;;;10.70;3.77;;;;;;;14.97;46.45;97903.28;125572;1104;102993;-72
2021/05/07 10:19:43;;;;;;;6.67;2.27;;;;;;;14.93;46.62;97909.97;125567;1099;103467;-71
2021/05/07 10:22:41;;;;;;;6.97;2.70;;;;;;;14.92;46.72;97916.33;125546;1099;103461;-72
2021/05/07 10:25:19;;;;;;;8.60;2.97;;;;;;;14.89;46.71;97907.63;125574;1104;103565;-74
2021/05/07 10:27:52;;;;;;;6.70;2.57;;;;;;;14.85;46.65;97908.14;125489;1104;103101;-73
2021/05/07 10:30:37;;;;;;;5.50;2.70;;;;;;;14.74;46.78;97912.81;125522;1100;103223;-73
2021/05/07 10:33:15;;;;;;;4.63;1.80;;;;;;;14.69;46.65;97925.03;125531;1104;102990;-73
2021/05/07 10:35:48;;;;;;;7.00;2.67;;;;;;;14.58;46.64;97918.97;125547;1104;102997;-74
2021/05/07 10:38:18;;;;;;;4.87;2.87;;;;;;;14.53;46.82;97918.63;125491;1104;102774;-74
2021/05/07 10:41:03;;;;;;;5.33;2.73;;;;;;;14.47;46.68;97924.63;125475;1100;103040;-74
2021/05/07 10:43:47;;;;;;;5.30;2.57;;;;;;;14.43;46.88;97944.71;125503;1104;103120;-73
2021/05/07 10:46:26;;;;;;;5.03;2.40;;;;;;;14.40;46.72;97937.02;125481;1104;103130;-75
2021/05/07 10:48:58;;;;;;;5.63;2.50;;;;;;;14.40;46.86;97932.48;125543;1104;103097;-73
2021/05/07 10:51:28;;;;;;;;;;;;;;;14.49;47.03;97930.66;125455;1104;102987;-72
2021/05/07 10:54:10;;;;;;;8.13;2.70;;;;;;;14.60;46.78;97950.93;125429;1098;103068;-74
2021/05/07 10:56:40;;;;;;;5.37;2.40;;;;;;;14.62;46.79;97954.28;125511;1104;103080;-75
2021/05/07 10:59:19;;;;;;;6.80;2.33;;;;;;;14.64;46.96;97944.25;125458;1104;103162;-74
2021/05/07 11:02:01;;;;;;;7.20;2.77;;;;;;;14.68;46.85;97929.50;125542;1100;103013;-74
2021/05/07 11:04:44;;;;;;;6.80;2.57;;;;;;;14.70;46.89;97940.91;125524;1104;103259;-73
2021/05/07 11:07:11;;;;;;;8.03;2.73;;;;;;;14.74;46.89;97934.23;125342;1104;103155;-74
2021/05/07 11:09:40;;;;;;;8.90;2.75;;;;;;;14.76;46.87;97938.58;125437;1104;103129;-75
2021/05/07 11:12:09;;;;;;;6.13;2.50;;;;;;;14.78;47.16;97942.78;125395;1098;103066;-71
2021/05/07 11:14:43;;;;;;;5.63;2.40;;;;;;;14.82;47.15;97925.39;125454;1104;103468;-73
2021/05/07 11:17:20;;;;;;;8.50;2.87;;;;;;;14.84;47.11;97919.85;125557;1104;103126;-73
2021/05/07 11:19:48;;;;;;;7.23;2.70;;;;;;;14.91;47.20;97920.86;125550;1104;103014;-72
2021/05/07 11:22:25;;;;;;;6.67;2.87;;;;;;;14.95;47.09;97905.28;125568;1104;103008;-73
2021/05/07 11:24:54;;;;;;;11.77;3.30;;;;;;;15.00;47.17;97911.83;125533;1104;103091;-74
2021/05/07 11:27:25;;;;;;;6.43;2.60;;;;;;;15.04;47.15;97914.99;125373;1104;103059;-73
2021/05/07 11:29:57;;;;;;;10.85;3.28;;;;;;;15.07;47.33;97913.84;125521;1104;103003;-74
2021/05/07 11:32:26;;;;;;;6.40;3.03;;;;;;;15.12;47.23;97908.78;125517;1104;103105;-73
2021/05/07 11:34:55;;;;;;;6.37;2.70;;;;;;;15.22;47.36;97892.55;125487;1104;103016;-74